Turner Lake (351) Station Data

Red Flag Warning: No
Fire Weather Zone: 250
SDGE Region: North East
Lat/Lon: 33.226/-117.076

Observations

Time Wind Speed/Gust Temp(F) RH Fuel Moist Fuel Temp(F) Dewpt(F) Tmax(F) Tmin(F) Accum Precip 10-min Precip SL Press(mb)
6/27 4:50pm 246 8 G 12 88° 14% - - 32° 95.3° 68.5° - - 880.0
6/27 4:40pm 250 8 G 13 88° 14% - - 33° 95.3° 68.5° - - 880.0
6/27 4:30pm 247 8 G 12 89° 14% - - 33° 95.3° 68.5° - - 880.0
6/27 4:20pm 245 7 G 10 90° 13% - - 33° 95.3° 68.5° - - 881.0
6/27 4:10pm 233 8 G 13 91° 13% - - 33° 95.3° 68.5° - - 881.0
6/27 4:00pm 239 7 G 13 90° 12% - - 31° 95.3° 68.5° - - 880.0
6/27 3:50pm 231 10 G 13 90° 12% - - 31° 95.3° 68.5° - - 880.0
6/27 3:40pm 235 10 G 15 90° 11% - - 29° 95.3° 68.5° - - 880.0
6/27 3:30pm 247 11 G 17 90° 11% - - 28° 95.3° 68.5° - - 880.0
6/27 3:20pm 236 12 G 17 90° 11% - - 29° 95.3° 68.5° - - 880.0
6/27 3:10pm 254 13 G 18 90° 11% - - 28° 95.3° 68.5° - - 880.0
6/27 3:00pm 251 11 G 18 90° 10% - - 28° 95.3° 68.5° - - 880.0
6/27 2:50pm 249 10 G 16 91° 11% - - 29° 95.3° 68.5° - - 880.0
6/27 2:40pm 269 9 G 14 92° 11% - - 29° 95.3° 68.5° - - 880.0
6/27 2:30pm 267 10 G 15 91° 12% - - 31° 95.3° 68.5° - - 881.0
6/27 2:20pm 252 11 G 14 91° 13% - - 33° 95.3° 68.5° - - 882.0
6/27 2:10pm 247 11 G 16 90° 14% - - 35° 95.3° 68.5° - - 882.0
6/27 2:00pm 239 11 G 16 91° 14% - - 35° 95.3° 68.5° - - 882.0
6/27 1:50pm 260 9 G 17 93° 11% - - 32° 95.3° 68.5° - - 881.0
6/27 1:40pm 267 9 G 14 93° 10% - - 29° 95.3° 68.5° - - 880.0
6/27 1:30pm 278 10 G 14 93° 8% - - 24° 95.3° 68.5° - - 880.0
6/27 1:20pm 292 8 G 13 93° 9% - - 26° 95.3° 68.5° - - 880.0
6/27 1:10pm 275 8 G 13 94° 10% - - 29° 95.3° 68.5° - - 880.0
6/27 1:00pm 257 10 G 16 93° 11% - - 32° 95.3° 68.5° - - 881.0
6/27 12:50pm 271 9 G 13 94° 12% - - 34° 95.3° 68.5° - - 881.0
6/27 12:40pm 313 7 G 14 94° 13% - - 36° 94.7° 68.5° - - 881.0
6/27 12:30pm 326 7 G 13 94° 14% - - 37° 94.7° 68.5° - - 882.0
6/27 12:20pm 328 8 G 12 94° 13% - - 35° 94.7° 68.5° - - 881.0
6/27 12:10pm 336 8 G 13 94° 11% - - 32° 94.7° 68.5° - - 881.0
6/27 12:00pm 323 9 G 13 94° 12% - - 33° 94.7° 68.5° - - 881.0
6/27 11:50am 315 6 G 10 94° 12% - - 34° 94.5° 68.5° - - 881.0
6/27 11:40am 338 6 G 11 94° 10% - - 29° 94.4° 68.5° - - 880.0
6/27 11:30am 272 6 G 11 93° 9% - - 25° 94.3° 68.5° - - 879.0
6/27 11:20am 305 6 G 13 93° 9% - - 27° 94.3° 68.5° - - 879.0
6/27 11:10am 322 5 G 9 94° 10% - - 29° 94.2° 68.5° - - 879.0
6/27 11:00am 322 5 G 9 93° 10% - - 29° 93.7° 68.5° - - 879.0
6/27 10:40am 2 3 G 7 92° 9% - - 26° 92.5° 68.5° - - 878.0
6/27 10:30am 314 3 G 7 92° 9% - - 26° 92.5° 68.5° - - 877.0
6/27 10:20am 210 4 G 7 90° 9% - - 25° 92° 68.5° - - 877.0
6/27 10:10am 235 5 G 8 89° 10% - - 25° 89.5° 68.5° - - 877.0
6/27 10:00am 246 5 G 7 89° 10% - - 25° 89.5° 68.5° - - 877.0
6/27 9:50am 227 5 G 8 88° 10% - - 25° 89.1° 68.5° - - 876.0
6/27 9:40am 235 6 G 8 88° 10% - - 25° 89.1° 68.5° - - 876.0
6/27 9:30am 253 5 G 7 88° 10% - - 24° 89.1° 68.5° - - 876.0
6/27 9:20am 267 3 G 6 88° 9% - - 22° 89.1° 68.5° - - 875.0
6/27 9:10am 279 2 G 5 89° 9% - - 22° 89.1° 68.5° - - 875.0
6/27 8:50am 357 2 G 4 88° 9% - - 22° 88.3° 68.5° - - 873.0
6/27 8:40am 298 1 G 3 87° 12% - - 27° 88.3° 68.5° - - 874.0
6/27 8:30am 213 2 G 4 87° 11% - - 27° 88.3° 68.5° - - 873.0
6/27 8:20am 141 1 G 3 87° 10% - - 24° 88° 68.5° - - 872.0
6/27 8:10am 160 1 G 3 85° 14% - - 30° 86.3° 68.5° - - 872.0
6/27 8:00am 164 2 G 6 83° 15% - - 30° 83.5° 68.5° - - 871.0
6/27 7:50am 113 4 G 6 80° 14% - - 27° 81.5° 68.5° - - 870.0
6/27 7:40am 120 4 G 7 78° 16% - - 28° 79.2° 68.5° - - 870.0
6/27 7:30am 129 4 G 6 77° 16% - - 28° 77.6° 68.5° - - 870.0
6/27 7:20am 140 4 G 5 76° 16% - - 27° 77° 68.5° - - 869.0
6/27 7:10am 135 4 G 6 75° 15% - - 25° 76.1° 68.5° - - 868.0
6/27 7:00am 133 4 G 7 73° 16% - - 25° 75.9° 68.5° - - 868.0
6/27 6:50am 123 6 G 9 73° 16% - - 24° 75.9° 68.5° - - 867.0
6/27 6:40am 119 6 G 8 72° 16% - - 23° 75.9° 68.5° - - 867.0
6/27 6:30am 116 6 G 8 71° 17% - - 24° 75.9° 68.5° - - 866.0
6/27 6:20am 124 4 G 8 71° 17% - - 24° 75.9° 68.5° - - 866.0
6/27 6:10am 122 2 G 4 70° 18% - - 24° 75.9° 68.5° - - 866.0
6/27 6:00am 118 4 G 6 69° 18% - - 24° 75.9° 68.5° - - 867.0
6/27 5:50am 120 4 G 6 69° 19% - - 25° 75.9° 68.5° - - 867.0
6/27 5:40am 121 4 G 7 70° 18% - - 24° 75.9° 68.7° - - 867.0
6/27 5:30am 118 5 G 8 70° 18% - - 25° 75.9° 68.7° - - 867.0
6/27 5:20am 115 6 G 8 70° 18% - - 25° 75.9° 68.7° - - 867.0
6/27 5:10am 115 4 G 7 70° 19% - - 26° 75.9° 68.7° - - 867.0
6/27 5:00am 124 3 G 5 70° 18% - - 25° 75.9° 69.9° - - 867.0
6/27 4:50am 117 3 G 5 70° 18% - - 25° 75.9° 69.9° - - 867.0
6/27 4:40am 119 5 G 7 71° 18% - - 26° 75.9° 69.9° - - 867.0
6/27 4:30am 117 5 G 7 70° 19% - - 26° 75.9° 69.9° - - 868.0
6/27 4:20am 119 3 G 6 71° 19% - - 27° 75.9° 69.9° - - 868.0
6/27 4:10am 122 2 G 4 70° 20% - - 27° 75.9° 69.9° - - 868.0
6/27 4:00am 136 2 G 5 71° 19% - - 27° 75.9° 70.5° - - 868.0
6/27 3:50am 124 3 G 5 72° 18% - - 27° 75.9° 70.5° - - 868.0
6/27 3:40am 128 5 G 7 72° 18% - - 27° 75.9° 70.5° - - 868.0
6/27 3:30am 124 4 G 7 72° 18% - - 27° 75.9° 70.5° - - 868.0
6/27 3:20am 117 5 G 7 73° 18% - - 27° 75.9° 70.5° - - 869.0
6/27 3:10am 123 5 G 8 73° 18% - - 28° 75.9° 70.5° - - 869.0
6/27 3:00am 112 5 G 8 72° 19% - - 28° 75.9° 70.5° - - 869.0
6/27 2:50am 113 5 G 8 73° 19% - - 29° 75.9° 70.5° - - 869.0
6/27 2:40am 119 5 G 9 73° 20% - - 29° 75.9° 70.5° - - 869.0
6/27 2:30am 116 4 G 8 72° 22% - - 31° 75.9° 70.5° - - 870.0
6/27 2:20am 132 5 G 9 72° 22% - - 31° 75.9° 70.5° - - 870.0
6/27 2:10am 124 6 G 9 73° 22% - - 31° 75.9° 70.5° - - 870.0
6/27 2:00am 119 3 G 6 73° 22% - - 32° 75.9° 70.5° - - 870.0
6/27 1:50am 123 4 G 7 72° 23% - - 33° 75.9° 70.5° - - 871.0
6/27 1:40am 116 5 G 8 73° 22% - - 32° 75.9° 70.5° - - 871.0
6/27 1:30am 154 5 G 8 73° 23% - - 34° 75.9° 70.6° - - 871.0
6/27 1:20am 119 3 G 7 74° 22% - - 33° 75.9° 70.6° - - 871.0
6/27 1:10am 104 4 G 6 75° 22% - - 33° 75.9° 70.6° - - 871.0
6/27 1:00am 142 3 G 6 74° 24% - - 34° 75.9° 70.6° - - 872.0
6/27 12:50am 109 4 G 7 73° 24% - - 34° 75.9° 70.6° - - 872.0
6/27 12:40am 116 5 G 8 75° 23% - - 35° 75.9° 70.6° - - 872.0
6/27 12:30am 88 3 G 9 74° 25% - - 36° 75.6° 70.6° - - 873.0
6/27 12:20am 145 4 G 9 73° 27% - - 37° 74.5° 70.6° - - 873.0
6/27 12:10am 55 5 G 8 73° 27% - - 37° 74.5° 70.6° - - 873.0
6/27 12:00am 126 3 G 5 74° 26% - - 37° 100.9° 71.8° - - 873.0
6/26 11:50pm 126 3 G 6 75° 26% - - 37° 100.9° 71.8° - - 874.0
6/26 11:40pm 136 2 G 4 74° 28% - - 38° 100.9° 71.8° - - 874.0
6/26 11:30pm 149 4 G 7 73° 28% - - 38° 100.9° 71.8° - - 875.0
6/26 11:20pm 153 4 G 6 74° 27% - - 38° 100.9° 71.8° - - 875.0
6/26 11:10pm 132 5 G 8 75° 26% - - 38° 100.9° 71.8° - - 875.0
6/26 11:00pm 120 6 G 8 76° 25% - - 38° 100.9° 71.8° - - 875.0
6/26 10:50pm 120 7 G 9 76° 25% - - 38° 100.9° 71.8° - - 875.0
6/26 10:40pm 115 5 G 8 76° 24% - - 37° 100.9° 71.8° - - 875.0
6/26 10:30pm 128 3 G 4 76° 25% - - 37° 100.9° 71.8° - - 875.0
6/26 10:20pm 119 4 G 9 77° 24% - - 37° 100.9° 71.8° - - 875.0
6/26 10:10pm 115 6 G 8 77° 24% - - 37° 100.9° 71.8° - - 876.0
6/26 10:00pm 114 5 G 8 78° 21% - - 36° 100.9° 71.8° - - 875.0
6/26 9:50pm 107 2 G 3 80° 20% - - 36° 100.9° 71.8° - - 876.0
6/26 9:40pm 126 2 G 3 79° 21% - - 36° 100.9° 71.8° - - 876.0
6/26 9:30pm 139 3 G 3 78° 22% - - 36° 100.9° 71.8° - - 877.0
6/26 9:20pm 134 2 G 3 79° 21% - - 35° 100.9° 71.8° - - 877.0
6/26 9:10pm 126 2 G 3 81° 20% - - 36° 100.9° 71.8° - - 878.0
6/26 9:00pm 157 2 G 3 81° 19% - - 35° 100.9° 71.8° - - 878.0
6/26 8:50pm 287 1 G 2 83° 19% - - 36° 100.9° 71.8° - - 879.0
6/26 8:40pm 41 1 G 2 84° 19% - - 37° 100.9° 71.8° - - 879.0
6/26 8:30pm 14 1 G 2 84° 18% - - 36° 100.9° 71.8° - - 880.0
6/26 8:20pm 52 1 G 2 84° 17% - - 35° 100.9° 71.8° - - 880.0
6/26 8:10pm 65 0 G 1 84° 17% - - 35° 100.9° 71.8° - - 881.0
6/26 8:00pm 6 1 G 4 86° 16% - - 34° 100.9° 71.8° - - 881.0
6/26 7:50pm 11 4 G 5 87° 15% - - 33° 100.9° 71.8° - - 882.0
6/26 7:40pm 352 4 G 5 89° 13% - - 32° 100.9° 71.8° - - 882.0
6/26 7:30pm 323 3 G 6 90° 12% - - 30° 100.9° 71.8° - - 882.0
6/26 7:20pm 340 5 G 7 90° 11% - - 29° 100.9° 71.8° - - 882.0
6/26 7:10pm 340 4 G 7 91° 10% - - 27° 100.9° 71.8° - - 882.0
6/26 7:00pm 334 6 G 8 92° 9% - - 24° 100.9° 71.8° - - 882.0
6/26 6:50pm 328 6 G 10 93° 8% - - 22° 100.9° 71.8° - - 882.0
6/26 6:40pm 327 7 G 11 93° 7% - - 20° 100.9° 71.8° - - 882.0
6/26 6:30pm 328 7 G 12 94° 7% - - 20° 100.9° 71.8° - - 883.0
6/26 6:20pm 324 8 G 15 94° 7% - - 20° 100.9° 71.8° - - 883.0
6/26 6:10pm 332 8 G 15 94° 7% - - 19° 100.9° 71.8° - - 883.0
6/26 6:00pm 334 7 G 13 95° 7% - - 20° 100.9° 71.8° - - 883.0
6/26 5:50pm 331 8 G 14 95° 7% - - 21° 100.9° 71.8° - - 883.0
6/26 5:40pm 320 7 G 12 95° 7% - - 22° 100.9° 71.8° - - 883.0
6/26 5:30pm 309 7 G 12 96° 8% - - 25° 100.9° 71.8° - - 884.0
6/26 5:20pm 318 7 G 11 96° 7% - - 23° 100.9° 71.8° - - 884.0
6/26 5:10pm 323 7 G 13 96° 8% - - 24° 100.9° 71.8° - - 884.0
6/26 5:00pm 343 9 G 14 96° 7% - - 22° 100.9° 71.8° - - 883.0
6/26 4:50pm 346 9 G 14 97° 7% - - 22° 100.9° 71.8° - - 883.0
6/26 4:40pm 348 9 G 16 96° 7% - - 22° 100.9° 71.8° - - 883.0
6/26 4:30pm 341 7 G 13 97° 7% - - 23° 100.9° 71.8° - - 884.0
6/26 4:20pm 335 6 G 11 97° 8% - - 27° 100.9° 71.8° - - 884.0
6/26 4:10pm 345 9 G 14 96° 8% - - 26° 100.9° 71.8° - - 884.0
6/26 4:00pm 340 9 G 15 98° 8% - - 25° 100.9° 71.8° - - 884.0
6/26 3:50pm 344 9 G 15 97° 7% - - 23° 100.9° 71.8° - - 884.0
6/26 3:40pm 332 7 G 14 98° 9% - - 29° 100.9° 71.8° - - 884.0
6/26 3:30pm 335 7 G 14 98° 9% - - 30° 100.9° 71.8° - - 884.0
6/26 3:20pm 320 6 G 11 100° 9% - - 32° 100.9° 71.8° - - 884.0
6/26 3:10pm 329 6 G 11 99° 9% - - 31° 100.5° 71.8° - - 884.0
6/26 3:00pm 318 7 G 14 99° 9% - - 31° 100.5° 71.8° - - 884.0
6/26 2:50pm 335 7 G 12 98° 10% - - 32° 100.5° 71.8° - - 884.0
6/26 2:40pm 349 8 G 16 98° 10% - - 31° 100.5° 71.8° - - 884.0
6/26 2:30pm 357 11 G 14 97° 9% - - 30° 100.5° 71.8° - - 884.0
6/26 2:20pm 354 9 G 14 98° 9% - - 29° 100.5° 71.8° - - 884.0
6/26 2:10pm 348 10 G 14 97° 9% - - 30° 100.5° 71.8° - - 884.0
6/26 2:00pm 334 10 G 16 99° 8% - - 28° 100.5° 71.8° - - 884.0
6/26 1:50pm 332 10 G 16 99° 8% - - 26° 100.5° 71.8° - - 883.0
6/26 1:40pm 329 10 G 15 99° 7% - - 23° 100.5° 71.8° - - 883.0
6/26 1:30pm 315 8 G 13 99° 7% - - 25° 100.5° 71.8° - - 883.0
6/26 1:20pm 326 11 G 15 98° 6% - - 21° 100.5° 71.8° - - 882.0
6/26 1:10pm 335 11 G 16 98° 7% - - 22° 100.5° 71.8° - - 882.0
6/26 1:00pm 337 12 G 17 97° 7% - - 23° 100.5° 71.8° - - 883.0
6/26 12:50pm 332 10 G 16 98° 7% - - 23° 100.5° 71.8° - - 883.0
6/26 12:40pm 336 10 G 15 98° 8% - - 26° 100.5° 71.8° - - 883.0
6/26 12:30pm 323 9 G 14 99° 8% - - 26° 100.5° 71.8° - - 883.0
6/26 12:20pm 327 9 G 14 100° 8% - - 26° 100.5° 71.8° - - 883.0
6/26 12:10pm 325 8 G 13 99° 9% - - 30° 100.4° 71.8° - - 883.0
6/26 12:00pm 318 6 G 11 99° 10% - - 32° 100.4° 71.8° - - 883.0
6/26 11:50am 325 6 G 12 99° 11% - - 34° 99.7° 71.8° - - 883.0
6/26 11:40am 321 7 G 11 99° 11% - - 35° 99.7° 71.8° - - 883.0
6/26 11:30am 334 7 G 11 99° 9% - - 29° 99.7° 71.8° - - 883.0
6/26 11:20am 328 8 G 13 98° 10% - - 32° 99.7° 71.8° - - 883.0
6/26 11:10am 333 7 G 13 99° 8% - - 27° 99.7° 71.8° - - 882.0
6/26 11:00am 273 6 G 10 98° 10% - - 31° 98.4° 71.8° - - 882.0
6/26 10:50am 239 7 G 10 97° 10% - - 31° 97.6° 71.8° - - 882.0
6/26 10:40am 248 6 G 10 97° 10% - - 31° 97.4° 71.8° - - 881.0
6/26 10:30am 237 6 G 9 96° 11% - - 34° 96.3° 71.8° - - 881.0
6/26 10:20am 230 5 G 9 95° 12% - - 34° 95.5° 71.8° - - 881.0
6/26 10:10am 249 4 G 6 95° 11% - - 33° 95.5° 71.8° - - 881.0
6/26 10:00am 247 4 G 6 94° 12% - - 33° 94.9° 71.8° - - 880.0
6/26 9:50am 239 5 G 7 94° 12% - - 34° 94.3° 71.8° - - 880.0
6/26 9:40am 236 5 G 8 93° 13% - - 35° 94.1° 71.8° - - 880.0
6/26 9:30am 258 4 G 7 94° 13% - - 35° 94.1° 71.8° - - 880.0
6/26 9:20am 264 4 G 6 93° 13% - - 35° 93.7° 71.8° - - 879.0
6/26 9:10am 261 4 G 5 93° 13% - - 35° 93.7° 71.8° - - 879.0
6/26 9:00am 260 3 G 4 93° 13% - - 34° 93.7° 71.8° - - 878.0
6/26 8:50am 288 2 G 3 93° 14% - - 36° 93.3° 71.8° - - 878.0
6/26 8:40am 273 0 G 1 92° 15% - - 38° 92.7° 71.8° - - 877.0
6/26 8:30am 261 1 G 2 91° 18% - - 41° 91.2° 71.8° - - 877.0
6/26 8:20am 127 2 G 4 89° 16% - - 38° 90.7° 71.8° - - 875.0
6/26 8:10am 120 3 G 5 88° 18% - - 39° 88.1° 71.8° - - 875.0
6/26 8:00am 125 3 G 5 86° 20% - - 40° 86.8° 71.8° - - 875.0
6/26 7:50am 155 2 G 4 84° 21% - - 41° 84.9° 71.8° - - 875.0
6/26 7:40am 138 2 G 5 82° 23% - - 40° 83.3° 71.8° - - 874.0
6/26 7:30am 143 3 G 6 81° 22% - - 38° 81.4° 71.8° - - 873.0
6/26 7:20am 150 4 G 7 78° 25% - - 40° 79.7° 71.8° - - 874.0
6/26 7:10am 144 4 G 7 79° 22% - - 36° 79.7° 71.8° - - 872.0
6/26 7:00am 137 4 G 6 77° 24% - - 37° 79.6° 71.8° - - 872.0
6/26 6:50am 128 3 G 5 75° 25% - - 37° 79.6° 71.8° - - 872.0
6/26 6:40am 142 3 G 5 75° 26% - - 37° 79.6° 71.8° - - 872.0
6/26 6:30am 130 3 G 6 73° 26% - - 36° 79.6° 71.8° - - 872.0
6/26 6:20am 115 4 G 6 73° 26% - - 36° 79.6° 71.8° - - 872.0
6/26 6:10am 122 4 G 7 73° 25% - - 36° 79.6° 71.8° - - 871.0
6/26 6:00am 119 3 G 4 73° 26% - - 36° 79.6° 71.8° - - 871.0